sensor_id;sensor_type;location;lat;lon;timestamp;P1;durP1;ratioP1;P2;durP2;ratioP2
18793;SDS011;29610;49.022;12.114;2023-02-10T00:02:09;51.70;;;22.88;;
18793;SDS011;29610;49.022;12.114;2023-02-10T00:04:39;50.83;;;21.85;;
18793;SDS011;29610;49.022;12.114;2023-02-10T00:07:07;48.78;;;20.45;;
18793;SDS011;29610;49.022;12.114;2023-02-10T00:09:36;47.83;;;22.52;;
18793;SDS011;29610;49.022;12.114;2023-02-10T00:12:05;44.78;;;21.85;;
18793;SDS011;29610;49.022;12.114;2023-02-10T00:14:34;44.70;;;20.45;;
18793;SDS011;29610;49.022;12.114;2023-02-10T00:17:03;45.60;;;21.50;;
18793;SDS011;29610;49.022;12.114;2023-02-10T00:19:32;59.28;;;23.52;;
18793;SDS011;29610;49.022;12.114;2023-02-10T00:22:02;52.78;;;23.05;;
18793;SDS011;29610;49.022;12.114;2023-02-10T00:24:31;55.63;;;25.33;;
18793;SDS011;29610;49.022;12.114;2023-02-10T00:26:59;53.28;;;21.90;;
18793;SDS011;29610;49.022;12.114;2023-02-10T00:29:29;48.55;;;22.40;;
18793;SDS011;29610;49.022;12.114;2023-02-10T00:32:00;49.10;;;21.92;;
18793;SDS011;29610;49.022;12.114;2023-02-10T00:34:29;58.53;;;24.80;;
18793;SDS011;29610;49.022;12.114;2023-02-10T00:36:57;53.17;;;24.70;;
18793;SDS011;29610;49.022;12.114;2023-02-10T00:39:27;48.05;;;23.63;;
18793;SDS011;29610;49.022;12.114;2023-02-10T00:41:56;55.83;;;24.27;;
18793;SDS011;29610;49.022;12.114;2023-02-10T00:44:25;60.33;;;24.42;;
18793;SDS011;29610;49.022;12.114;2023-02-10T00:46:55;51.40;;;23.60;;
18793;SDS011;29610;49.022;12.114;2023-02-10T00:49:25;53.55;;;24.77;;
18793;SDS011;29610;49.022;12.114;2023-02-10T00:51:55;62.33;;;24.15;;
18793;SDS011;29610;49.022;12.114;2023-02-10T00:54:25;50.20;;;22.92;;
18793;SDS011;29610;49.022;12.114;2023-02-10T00:56:55;50.55;;;24.27;;
18793;SDS011;29610;49.022;12.114;2023-02-10T00:59:23;57.40;;;23.05;;
18793;SDS011;29610;49.022;12.114;2023-02-10T01:01:52;43.50;;;23.50;;
18793;SDS011;29610;49.022;12.114;2023-02-10T01:04:22;56.40;;;24.05;;
18793;SDS011;29610;49.022;12.114;2023-02-10T01:06:50;46.30;;;21.48;;
18793;SDS011;29610;49.022;12.114;2023-02-10T01:09:19;49.25;;;23.52;;
18793;SDS011;29610;49.022;12.114;2023-02-10T01:11:47;40.28;;;20.70;;
18793;SDS011;29610;49.022;12.114;2023-02-10T01:14:18;50.47;;;21.85;;
18793;SDS011;29610;49.022;12.114;2023-02-10T01:16:46;44.38;;;22.77;;
18793;SDS011;29610;49.022;12.114;2023-02-10T01:19:15;55.85;;;23.25;;
18793;SDS011;29610;49.022;12.114;2023-02-10T01:21:44;47.17;;;21.73;;
18793;SDS011;29610;49.022;12.114;2023-02-10T01:24:12;44.22;;;21.05;;
18793;SDS011;29610;49.022;12.114;2023-02-10T01:26:41;45.58;;;22.63;;
18793;SDS011;29610;49.022;12.114;2023-02-10T01:29:11;51.03;;;20.73;;
18793;SDS011;29610;49.022;12.114;2023-02-10T01:31:41;57.47;;;22.98;;
18793;SDS011;29610;49.022;12.114;2023-02-10T01:34:10;40.88;;;21.45;;
18793;SDS011;29610;49.022;12.114;2023-02-10T01:36:38;43.72;;;21.77;;
18793;SDS011;29610;49.022;12.114;2023-02-10T01:39:07;46.33;;;20.83;;
18793;SDS011;29610;49.022;12.114;2023-02-10T01:41:36;41.67;;;20.67;;
18793;SDS011;29610;49.022;12.114;2023-02-10T01:44:05;59.45;;;20.20;;
18793;SDS011;29610;49.022;12.114;2023-02-10T01:47:14;49.00;;;21.65;;
18793;SDS011;29610;49.022;12.114;2023-02-10T01:49:44;53.75;;;22.73;;
18793;SDS011;29610;49.022;12.114;2023-02-10T01:52:20;52.78;;;23.67;;
18793;SDS011;29610;49.022;12.114;2023-02-10T01:54:57;47.60;;;21.23;;
18793;SDS011;29610;49.022;12.114;2023-02-10T01:57:32;51.45;;;22.50;;
18793;SDS011;29610;49.022;12.114;2023-02-10T02:00:03;54.30;;;22.15;;
18793;SDS011;29610;49.022;12.114;2023-02-10T02:02:41;47.13;;;21.67;;
18793;SDS011;29610;49.022;12.114;2023-02-10T02:05:18;49.40;;;22.10;;
18793;SDS011;29610;49.022;12.114;2023-02-10T02:07:58;56.85;;;23.15;;
18793;SDS011;29610;49.022;12.114;2023-02-10T02:10:44;50.35;;;22.95;;
18793;SDS011;29610;49.022;12.114;2023-02-10T02:13:42;43.70;;;21.33;;
18793;SDS011;29610;49.022;12.114;2023-02-10T02:16:40;50.00;;;23.00;;
18793;SDS011;29610;49.022;12.114;2023-02-10T02:19:40;47.88;;;22.25;;
18793;SDS011;29610;49.022;12.114;2023-02-10T02:23:00;43.20;;;20.92;;
18793;SDS011;29610;49.022;12.114;2023-02-10T02:26:11;39.58;;;19.60;;
18793;SDS011;29610;49.022;12.114;2023-02-10T02:29:05;44.78;;;18.88;;
18793;SDS011;29610;49.022;12.114;2023-02-10T02:32:00;40.45;;;20.90;;
18793;SDS011;29610;49.022;12.114;2023-02-10T02:34:37;60.08;;;24.13;;
18793;SDS011;29610;49.022;12.114;2023-02-10T02:37:11;50.08;;;24.95;;
18793;SDS011;29610;49.022;12.114;2023-02-10T02:39:48;80.38;;;30.08;;
18793;SDS011;29610;49.022;12.114;2023-02-10T02:42:19;57.13;;;26.15;;
18793;SDS011;29610;49.022;12.114;2023-02-10T02:44:51;73.10;;;25.38;;
18793;SDS011;29610;49.022;12.114;2023-02-10T02:47:38;67.50;;;27.95;;
18793;SDS011;29610;49.022;12.114;2023-02-10T02:50:26;47.13;;;23.30;;
18793;SDS011;29610;49.022;12.114;2023-02-10T02:53:08;56.80;;;26.20;;
18793;SDS011;29610;49.022;12.114;2023-02-10T02:55:50;51.42;;;24.52;;
18793;SDS011;29610;49.022;12.114;2023-02-10T02:58:31;58.63;;;23.02;;
18793;SDS011;29610;49.022;12.114;2023-02-10T03:01:14;60.78;;;25.38;;
18793;SDS011;29610;49.022;12.114;2023-02-10T03:03:53;50.72;;;24.10;;
18793;SDS011;29610;49.022;12.114;2023-02-10T03:06:24;56.40;;;23.60;;
18793;SDS011;29610;49.022;12.114;2023-02-10T03:08:53;52.70;;;23.83;;
18793;SDS011;29610;49.022;12.114;2023-02-10T03:11:22;55.38;;;24.60;;
18793;SDS011;29610;49.022;12.114;2023-02-10T03:13:51;59.80;;;25.35;;
18793;SDS011;29610;49.022;12.114;2023-02-10T03:16:20;49.67;;;22.95;;
18793;SDS011;29610;49.022;12.114;2023-02-10T03:18:49;55.92;;;22.77;;
18793;SDS011;29610;49.022;12.114;2023-02-10T03:21:19;59.55;;;23.25;;
18793;SDS011;29610;49.022;12.114;2023-02-10T03:23:47;48.85;;;23.00;;
18793;SDS011;29610;49.022;12.114;2023-02-10T03:26:16;53.28;;;21.63;;
18793;SDS011;29610;49.022;12.114;2023-02-10T03:28:46;60.25;;;25.65;;
18793;SDS011;29610;49.022;12.114;2023-02-10T03:31:14;44.78;;;20.92;;
18793;SDS011;29610;49.022;12.114;2023-02-10T03:33:43;52.83;;;21.80;;
18793;SDS011;29610;49.022;12.114;2023-02-10T03:36:12;49.05;;;19.88;;
18793;SDS011;29610;49.022;12.114;2023-02-10T03:38:42;43.65;;;20.10;;
18793;SDS011;29610;49.022;12.114;2023-02-10T03:41:12;47.22;;;20.58;;
18793;SDS011;29610;49.022;12.114;2023-02-10T03:43:41;43.03;;;20.83;;
18793;SDS011;29610;49.022;12.114;2023-02-10T03:46:10;43.35;;;21.63;;
18793;SDS011;29610;49.022;12.114;2023-02-10T03:48:39;45.88;;;21.52;;
18793;SDS011;29610;49.022;12.114;2023-02-10T03:51:07;50.28;;;22.48;;
18793;SDS011;29610;49.022;12.114;2023-02-10T03:53:37;56.75;;;21.48;;
18793;SDS011;29610;49.022;12.114;2023-02-10T03:56:07;52.78;;;21.70;;
18793;SDS011;29610;49.022;12.114;2023-02-10T03:58:36;46.45;;;20.60;;
18793;SDS011;29610;49.022;12.114;2023-02-10T04:01:08;58.60;;;22.02;;
18793;SDS011;29610;49.022;12.114;2023-02-10T04:03:38;48.30;;;21.77;;
18793;SDS011;29610;49.022;12.114;2023-02-10T04:06:07;43.25;;;20.48;;
18793;SDS011;29610;49.022;12.114;2023-02-10T04:08:37;53.00;;;23.05;;
18793;SDS011;29610;49.022;12.114;2023-02-10T04:11:08;50.30;;;22.08;;
18793;SDS011;29610;49.022;12.114;2023-02-10T04:13:37;57.10;;;22.40;;
18793;SDS011;29610;49.022;12.114;2023-02-10T04:16:07;50.55;;;22.00;;
18793;SDS011;29610;49.022;12.114;2023-02-10T04:18:39;47.47;;;19.67;;
18793;SDS011;29610;49.022;12.114;2023-02-10T04:21:09;60.58;;;22.70;;
18793;SDS011;29610;49.022;12.114;2023-02-10T04:23:39;49.13;;;22.15;;
18793;SDS011;29610;49.022;12.114;2023-02-10T04:26:09;50.47;;;23.40;;
18793;SDS011;29610;49.022;12.114;2023-02-10T04:28:38;55.95;;;23.70;;
18793;SDS011;29610;49.022;12.114;2023-02-10T04:31:07;59.08;;;24.50;;
18793;SDS011;29610;49.022;12.114;2023-02-10T04:33:36;46.72;;;22.02;;
18793;SDS011;29610;49.022;12.114;2023-02-10T04:36:05;54.17;;;23.92;;
18793;SDS011;29610;49.022;12.114;2023-02-10T04:38:35;43.72;;;21.45;;
18793;SDS011;29610;49.022;12.114;2023-02-10T04:41:03;48.53;;;23.05;;
18793;SDS011;29610;49.022;12.114;2023-02-10T04:43:33;57.67;;;22.45;;
18793;SDS011;29610;49.022;12.114;2023-02-10T04:46:02;42.78;;;20.70;;
18793;SDS011;29610;49.022;12.114;2023-02-10T04:48:31;44.17;;;20.25;;
18793;SDS011;29610;49.022;12.114;2023-02-10T04:51:04;47.35;;;21.20;;
18793;SDS011;29610;49.022;12.114;2023-02-10T04:53:34;45.05;;;21.45;;
18793;SDS011;29610;49.022;12.114;2023-02-10T04:56:03;42.85;;;18.38;;
18793;SDS011;29610;49.022;12.114;2023-02-10T04:58:35;42.42;;;20.85;;
18793;SDS011;29610;49.022;12.114;2023-02-10T05:01:04;49.88;;;21.40;;
18793;SDS011;29610;49.022;12.114;2023-02-10T05:03:33;49.47;;;20.55;;
18793;SDS011;29610;49.022;12.114;2023-02-10T05:06:09;48.60;;;20.88;;
18793;SDS011;29610;49.022;12.114;2023-02-10T05:08:40;47.22;;;21.33;;
18793;SDS011;29610;49.022;12.114;2023-02-10T05:11:10;48.03;;;22.45;;
18793;SDS011;29610;49.022;12.114;2023-02-10T05:13:42;48.25;;;20.40;;
18793;SDS011;29610;49.022;12.114;2023-02-10T05:16:12;53.90;;;23.52;;
18793;SDS011;29610;49.022;12.114;2023-02-10T05:18:43;44.97;;;20.40;;
18793;SDS011;29610;49.022;12.114;2023-02-10T05:21:12;45.20;;;20.50;;
18793;SDS011;29610;49.022;12.114;2023-02-10T05:23:41;50.35;;;20.77;;
18793;SDS011;29610;49.022;12.114;2023-02-10T05:26:10;46.15;;;22.02;;
18793;SDS011;29610;49.022;12.114;2023-02-10T05:28:38;57.22;;;22.00;;
18793;SDS011;29610;49.022;12.114;2023-02-10T05:31:08;53.85;;;24.20;;
18793;SDS011;29610;49.022;12.114;2023-02-10T05:33:37;53.35;;;24.40;;
18793;SDS011;29610;49.022;12.114;2023-02-10T05:36:06;53.63;;;21.90;;
18793;SDS011;29610;49.022;12.114;2023-02-10T05:38:35;62.83;;;24.52;;
18793;SDS011;29610;49.022;12.114;2023-02-10T05:41:04;57.90;;;24.20;;
18793;SDS011;29610;49.022;12.114;2023-02-10T05:43:33;51.63;;;24.77;;
18793;SDS011;29610;49.022;12.114;2023-02-10T05:46:01;51.17;;;26.48;;
18793;SDS011;29610;49.022;12.114;2023-02-10T05:48:31;67.07;;;27.63;;
18793;SDS011;29610;49.022;12.114;2023-02-10T05:51:00;57.42;;;21.70;;
18793;SDS011;29610;49.022;12.114;2023-02-10T05:53:29;50.55;;;23.92;;
18793;SDS011;29610;49.022;12.114;2023-02-10T05:55:58;69.57;;;25.45;;
18793;SDS011;29610;49.022;12.114;2023-02-10T05:58:26;49.90;;;24.15;;
18793;SDS011;29610;49.022;12.114;2023-02-10T06:00:59;51.65;;;24.42;;
18793;SDS011;29610;49.022;12.114;2023-02-10T06:03:28;57.90;;;24.95;;
18793;SDS011;29610;49.022;12.114;2023-02-10T06:05:58;59.80;;;27.17;;
18793;SDS011;29610;49.022;12.114;2023-02-10T06:08:27;55.47;;;25.45;;
18793;SDS011;29610;49.022;12.114;2023-02-10T06:10:55;61.70;;;25.55;;
18793;SDS011;29610;49.022;12.114;2023-02-10T06:13:24;61.90;;;26.05;;
18793;SDS011;29610;49.022;12.114;2023-02-10T06:15:53;47.63;;;24.20;;
18793;SDS011;29610;49.022;12.114;2023-02-10T06:18:22;46.08;;;21.20;;
18793;SDS011;29610;49.022;12.114;2023-02-10T06:20:51;64.85;;;24.52;;
18793;SDS011;29610;49.022;12.114;2023-02-10T06:23:21;59.58;;;24.98;;
18793;SDS011;29610;49.022;12.114;2023-02-10T06:25:50;49.45;;;24.77;;
18793;SDS011;29610;49.022;12.114;2023-02-10T06:28:21;54.40;;;24.55;;
18793;SDS011;29610;49.022;12.114;2023-02-10T06:30:50;58.85;;;24.50;;
18793;SDS011;29610;49.022;12.114;2023-02-10T06:33:20;54.88;;;24.10;;
18793;SDS011;29610;49.022;12.114;2023-02-10T06:35:49;55.50;;;22.13;;
18793;SDS011;29610;49.022;12.114;2023-02-10T06:38:18;53.53;;;21.45;;
18793;SDS011;29610;49.022;12.114;2023-02-10T06:40:48;60.20;;;23.45;;
18793;SDS011;29610;49.022;12.114;2023-02-10T06:43:16;54.63;;;22.30;;
18793;SDS011;29610;49.022;12.114;2023-02-10T06:45:45;43.75;;;20.23;;
18793;SDS011;29610;49.022;12.114;2023-02-10T06:48:14;56.45;;;21.35;;
18793;SDS011;29610;49.022;12.114;2023-02-10T06:51:02;48.72;;;23.45;;
18793;SDS011;29610;49.022;12.114;2023-02-10T06:53:51;59.33;;;22.70;;
18793;SDS011;29610;49.022;12.114;2023-02-10T06:56:43;55.88;;;22.85;;
18793;SDS011;29610;49.022;12.114;2023-02-10T06:59:34;46.72;;;22.55;;
18793;SDS011;29610;49.022;12.114;2023-02-10T07:02:23;41.40;;;20.92;;
18793;SDS011;29610;49.022;12.114;2023-02-10T07:04:52;69.85;;;24.65;;
18793;SDS011;29610;49.022;12.114;2023-02-10T07:07:21;58.95;;;25.38;;
18793;SDS011;29610;49.022;12.114;2023-02-10T07:09:50;48.83;;;23.60;;
18793;SDS011;29610;49.022;12.114;2023-02-10T07:12:21;63.08;;;27.40;;
18793;SDS011;29610;49.022;12.114;2023-02-10T07:14:51;61.95;;;25.77;;
18793;SDS011;29610;49.022;12.114;2023-02-10T07:17:20;73.57;;;27.80;;
18793;SDS011;29610;49.022;12.114;2023-02-10T07:19:49;74.82;;;30.10;;
18793;SDS011;29610;49.022;12.114;2023-02-10T07:22:18;72.30;;;28.45;;
18793;SDS011;29610;49.022;12.114;2023-02-10T07:24:47;59.75;;;26.38;;
18793;SDS011;29610;49.022;12.114;2023-02-10T07:27:16;66.68;;;29.00;;
18793;SDS011;29610;49.022;12.114;2023-02-10T07:29:46;75.60;;;27.10;;
18793;SDS011;29610;49.022;12.114;2023-02-10T07:32:15;70.65;;;29.98;;
18793;SDS011;29610;49.022;12.114;2023-02-10T07:34:44;75.03;;;29.95;;
18793;SDS011;29610;49.022;12.114;2023-02-10T07:37:12;81.75;;;29.63;;
18793;SDS011;29610;49.022;12.114;2023-02-10T07:39:41;64.70;;;29.48;;
18793;SDS011;29610;49.022;12.114;2023-02-10T07:42:09;67.93;;;31.15;;
18793;SDS011;29610;49.022;12.114;2023-02-10T07:44:59;72.90;;;31.00;;
18793;SDS011;29610;49.022;12.114;2023-02-10T07:47:29;71.88;;;35.53;;
18793;SDS011;29610;49.022;12.114;2023-02-10T07:49:57;79.15;;;32.25;;
18793;SDS011;29610;49.022;12.114;2023-02-10T07:52:26;72.50;;;31.30;;
18793;SDS011;29610;49.022;12.114;2023-02-10T07:54:55;72.43;;;33.97;;
18793;SDS011;29610;49.022;12.114;2023-02-10T07:57:24;78.97;;;33.35;;
18793;SDS011;29610;49.022;12.114;2023-02-10T07:59:53;71.88;;;32.10;;
18793;SDS011;29610;49.022;12.114;2023-02-10T08:02:23;75.75;;;30.75;;
18793;SDS011;29610;49.022;12.114;2023-02-10T08:04:52;73.40;;;31.08;;
18793;SDS011;29610;49.022;12.114;2023-02-10T08:07:22;65.90;;;31.40;;
18793;SDS011;29610;49.022;12.114;2023-02-10T08:09:51;65.45;;;31.58;;
18793;SDS011;29610;49.022;12.114;2023-02-10T08:12:19;78.70;;;33.05;;
18793;SDS011;29610;49.022;12.114;2023-02-10T08:14:48;85.80;;;32.90;;
18793;SDS011;29610;49.022;12.114;2023-02-10T08:17:16;69.22;;;30.88;;
18793;SDS011;29610;49.022;12.114;2023-02-10T08:19:46;82.90;;;33.75;;
18793;SDS011;29610;49.022;12.114;2023-02-10T08:22:15;92.93;;;37.38;;
18793;SDS011;29610;49.022;12.114;2023-02-10T08:24:44;88.22;;;34.05;;
18793;SDS011;29610;49.022;12.114;2023-02-10T08:27:13;75.57;;;33.35;;
18793;SDS011;29610;49.022;12.114;2023-02-10T08:29:41;75.72;;;35.05;;
18793;SDS011;29610;49.022;12.114;2023-02-10T08:32:10;70.70;;;32.15;;
18793;SDS011;29610;49.022;12.114;2023-02-10T08:34:47;76.97;;;35.00;;
18793;SDS011;29610;49.022;12.114;2023-02-10T08:37:17;84.90;;;34.50;;
18793;SDS011;29610;49.022;12.114;2023-02-10T08:39:46;74.18;;;36.35;;
18793;SDS011;29610;49.022;12.114;2023-02-10T08:42:15;82.18;;;35.20;;
18793;SDS011;29610;49.022;12.114;2023-02-10T08:44:43;80.60;;;34.03;;
18793;SDS011;29610;49.022;12.114;2023-02-10T08:47:12;81.00;;;36.60;;
18793;SDS011;29610;49.022;12.114;2023-02-10T08:49:41;79.75;;;34.65;;
18793;SDS011;29610;49.022;12.114;2023-02-10T08:52:11;76.80;;;32.85;;
18793;SDS011;29610;49.022;12.114;2023-02-10T08:54:40;82.70;;;36.63;;
18793;SDS011;29610;49.022;12.114;2023-02-10T08:57:09;88.95;;;36.42;;
18793;SDS011;29610;49.022;12.114;2023-02-10T08:59:37;79.95;;;35.05;;
18793;SDS011;29610;49.022;12.114;2023-02-10T09:02:06;79.80;;;33.15;;
18793;SDS011;29610;49.022;12.114;2023-02-10T09:04:38;70.75;;;33.63;;
18793;SDS011;29610;49.022;12.114;2023-02-10T09:07:07;78.30;;;34.13;;
18793;SDS011;29610;49.022;12.114;2023-02-10T09:09:39;64.88;;;32.35;;
18793;SDS011;29610;49.022;12.114;2023-02-10T09:12:10;82.40;;;34.15;;
18793;SDS011;29610;49.022;12.114;2023-02-10T09:14:41;67.07;;;33.33;;
18793;SDS011;29610;49.022;12.114;2023-02-10T09:17:09;68.70;;;30.45;;
18793;SDS011;29610;49.022;12.114;2023-02-10T09:19:39;75.35;;;33.80;;
18793;SDS011;29610;49.022;12.114;2023-02-10T09:22:08;64.13;;;32.65;;
18793;SDS011;29610;49.022;12.114;2023-02-10T09:24:36;69.13;;;31.55;;
18793;SDS011;29610;49.022;12.114;2023-02-10T09:27:09;70.25;;;33.00;;
18793;SDS011;29610;49.022;12.114;2023-02-10T09:29:37;61.55;;;31.42;;
18793;SDS011;29610;49.022;12.114;2023-02-10T09:32:06;63.35;;;30.83;;
18793;SDS011;29610;49.022;12.114;2023-02-10T09:34:35;72.35;;;34.50;;
18793;SDS011;29610;49.022;12.114;2023-02-10T09:37:06;72.75;;;30.55;;
18793;SDS011;29610;49.022;12.114;2023-02-10T09:39:35;78.93;;;34.75;;
18793;SDS011;29610;49.022;12.114;2023-02-10T09:42:08;78.80;;;33.45;;
18793;SDS011;29610;49.022;12.114;2023-02-10T09:44:50;74.18;;;36.05;;
18793;SDS011;29610;49.022;12.114;2023-02-10T09:47:30;70.07;;;33.55;;
18793;SDS011;29610;49.022;12.114;2023-02-10T09:50:25;78.65;;;31.90;;
18793;SDS011;29610;49.022;12.114;2023-02-10T09:53:13;73.80;;;33.22;;
18793;SDS011;29610;49.022;12.114;2023-02-10T09:55:49;75.45;;;34.00;;
18793;SDS011;29610;49.022;12.114;2023-02-10T09:58:24;71.57;;;30.90;;
18793;SDS011;29610;49.022;12.114;2023-02-10T10:01:02;67.30;;;31.67;;
18793;SDS011;29610;49.022;12.114;2023-02-10T10:03:42;71.70;;;32.35;;
18793;SDS011;29610;49.022;12.114;2023-02-10T10:06:20;72.53;;;34.10;;
18793;SDS011;29610;49.022;12.114;2023-02-10T10:08:57;70.70;;;32.25;;
18793;SDS011;29610;49.022;12.114;2023-02-10T10:11:45;70.05;;;33.58;;
18793;SDS011;29610;49.022;12.114;2023-02-10T10:14:19;77.20;;;32.75;;
18793;SDS011;29610;49.022;12.114;2023-02-10T10:17:02;64.47;;;32.92;;
18793;SDS011;29610;49.022;12.114;2023-02-10T10:20:04;70.63;;;31.75;;
18793;SDS011;29610;49.022;12.114;2023-02-10T10:22:56;61.27;;;29.97;;
18793;SDS011;29610;49.022;12.114;2023-02-10T10:25:46;73.57;;;32.85;;
18793;SDS011;29610;49.022;12.114;2023-02-10T10:28:35;67.03;;;31.90;;
18793;SDS011;29610;49.022;12.114;2023-02-10T10:31:17;73.78;;;33.83;;
18793;SDS011;29610;49.022;12.114;2023-02-10T10:33:49;76.00;;;34.30;;
18793;SDS011;29610;49.022;12.114;2023-02-10T10:36:21;73.30;;;31.70;;
18793;SDS011;29610;49.022;12.114;2023-02-10T10:38:57;68.07;;;30.37;;
18793;SDS011;29610;49.022;12.114;2023-02-10T10:41:30;62.63;;;32.27;;
18793;SDS011;29610;49.022;12.114;2023-02-10T10:44:04;73.07;;;32.47;;
18793;SDS011;29610;49.022;12.114;2023-02-10T10:46:36;65.60;;;30.70;;
18793;SDS011;29610;49.022;12.114;2023-02-10T10:49:12;64.03;;;31.00;;
18793;SDS011;29610;49.022;12.114;2023-02-10T10:51:42;62.33;;;29.30;;
18793;SDS011;29610;49.022;12.114;2023-02-10T10:54:15;64.40;;;32.13;;
18793;SDS011;29610;49.022;12.114;2023-02-10T10:56:49;60.63;;;30.87;;
18793;SDS011;29610;49.022;12.114;2023-02-10T10:59:25;70.20;;;31.97;;
18793;SDS011;29610;49.022;12.114;2023-02-10T11:02:11;63.23;;;31.87;;
18793;SDS011;29610;49.022;12.114;2023-02-10T11:04:42;57.63;;;29.60;;
18793;SDS011;29610;49.022;12.114;2023-02-10T11:07:16;58.47;;;30.27;;
18793;SDS011;29610;49.022;12.114;2023-02-10T11:09:48;54.13;;;29.20;;
18793;SDS011;29610;49.022;12.114;2023-02-10T11:12:21;58.03;;;30.27;;
18793;SDS011;29610;49.022;12.114;2023-02-10T11:14:55;60.73;;;31.83;;
18793;SDS011;29610;49.022;12.114;2023-02-10T11:17:28;59.60;;;30.87;;
18793;SDS011;29610;49.022;12.114;2023-02-10T11:20:05;62.43;;;30.83;;
18793;SDS011;29610;49.022;12.114;2023-02-10T11:22:55;64.30;;;32.63;;
18793;SDS011;29610;49.022;12.114;2023-02-10T11:25:27;56.63;;;29.13;;
18793;SDS011;29610;49.022;12.114;2023-02-10T11:27:59;58.00;;;30.47;;
18793;SDS011;29610;49.022;12.114;2023-02-10T11:30:30;57.60;;;29.10;;
18793;SDS011;29610;49.022;12.114;2023-02-10T11:33:03;62.37;;;31.90;;
18793;SDS011;29610;49.022;12.114;2023-02-10T11:35:46;58.83;;;30.17;;
18793;SDS011;29610;49.022;12.114;2023-02-10T11:38:17;62.23;;;30.17;;
18793;SDS011;29610;49.022;12.114;2023-02-10T11:40:50;53.67;;;28.53;;
18793;SDS011;29610;49.022;12.114;2023-02-10T11:43:22;60.77;;;31.57;;
18793;SDS011;29610;49.022;12.114;2023-02-10T11:45:58;56.10;;;28.00;;
18793;SDS011;29610;49.022;12.114;2023-02-10T11:48:30;63.83;;;29.87;;
18793;SDS011;29610;49.022;12.114;2023-02-10T11:51:00;56.47;;;29.30;;
18793;SDS011;29610;49.022;12.114;2023-02-10T11:53:41;58.83;;;29.93;;
18793;SDS011;29610;49.022;12.114;2023-02-10T11:56:14;54.93;;;30.80;;
18793;SDS011;29610;49.022;12.114;2023-02-10T11:59:11;65.90;;;30.13;;
18793;SDS011;29610;49.022;12.114;2023-02-10T12:01:53;51.13;;;28.23;;
18793;SDS011;29610;49.022;12.114;2023-02-10T12:04:37;51.60;;;28.00;;
18793;SDS011;29610;49.022;12.114;2023-02-10T12:07:32;56.97;;;27.50;;
18793;SDS011;29610;49.022;12.114;2023-02-10T12:10:14;52.33;;;27.60;;
18793;SDS011;29610;49.022;12.114;2023-02-10T12:12:56;66.87;;;30.60;;
18793;SDS011;29610;49.022;12.114;2023-02-10T12:15:44;56.77;;;30.60;;
18793;SDS011;29610;49.022;12.114;2023-02-10T12:18:33;54.20;;;28.87;;
18793;SDS011;29610;49.022;12.114;2023-02-10T12:21:26;52.30;;;29.90;;
18793;SDS011;29610;49.022;12.114;2023-02-10T12:24:22;57.47;;;28.60;;
18793;SDS011;29610;49.022;12.114;2023-02-10T12:27:12;59.43;;;28.20;;
18793;SDS011;29610;49.022;12.114;2023-02-10T12:29:52;62.27;;;29.20;;
18793;SDS011;29610;49.022;12.114;2023-02-10T12:32:35;53.90;;;28.20;;
18793;SDS011;29610;49.022;12.114;2023-02-10T12:35:22;65.07;;;28.87;;
18793;SDS011;29610;49.022;12.114;2023-02-10T12:38:08;60.67;;;30.50;;
18793;SDS011;29610;49.022;12.114;2023-02-10T12:41:00;49.37;;;28.77;;
18793;SDS011;29610;49.022;12.114;2023-02-10T12:43:44;56.37;;;30.07;;
18793;SDS011;29610;49.022;12.114;2023-02-10T12:46:33;54.60;;;28.40;;
18793;SDS011;29610;49.022;12.114;2023-02-10T12:49:19;57.87;;;30.53;;
18793;SDS011;29610;49.022;12.114;2023-02-10T12:52:05;55.17;;;28.40;;
18793;SDS011;29610;49.022;12.114;2023-02-10T12:54:46;51.03;;;26.43;;
18793;SDS011;29610;49.022;12.114;2023-02-10T12:57:24;56.17;;;28.47;;
18793;SDS011;29610;49.022;12.114;2023-02-10T12:59:59;47.60;;;25.27;;
18793;SDS011;29610;49.022;12.114;2023-02-10T13:02:36;62.30;;;29.60;;
18793;SDS011;29610;49.022;12.114;2023-02-10T13:05:14;48.70;;;28.03;;
18793;SDS011;29610;49.022;12.114;2023-02-10T13:07:48;54.10;;;27.03;;
18793;SDS011;29610;49.022;12.114;2023-02-10T13:10:29;61.33;;;29.40;;
18793;SDS011;29610;49.022;12.114;2023-02-10T13:13:04;56.93;;;30.40;;
18793;SDS011;29610;49.022;12.114;2023-02-10T13:15:40;60.10;;;28.77;;
18793;SDS011;29610;49.022;12.114;2023-02-10T13:18:18;57.20;;;28.50;;
18793;SDS011;29610;49.022;12.114;2023-02-10T13:21:01;50.27;;;26.77;;
18793;SDS011;29610;49.022;12.114;2023-02-10T13:23:40;52.60;;;26.20;;
18793;SDS011;29610;49.022;12.114;2023-02-10T13:26:20;56.53;;;28.37;;
18793;SDS011;29610;49.022;12.114;2023-02-10T13:29:25;52.77;;;26.63;;
18793;SDS011;29610;49.022;12.114;2023-02-10T13:35:17;53.10;;;27.77;;
18793;SDS011;29610;49.022;12.114;2023-02-10T13:37:51;61.80;;;28.73;;
18793;SDS011;29610;49.022;12.114;2023-02-10T13:40:24;49.83;;;27.40;;
18793;SDS011;29610;49.022;12.114;2023-02-10T13:42:58;51.93;;;28.07;;
18793;SDS011;29610;49.022;12.114;2023-02-10T13:45:31;50.73;;;27.60;;
18793;SDS011;29610;49.022;12.114;2023-02-10T13:48:04;49.33;;;26.90;;
18793;SDS011;29610;49.022;12.114;2023-02-10T13:50:48;48.40;;;25.53;;
18793;SDS011;29610;49.022;12.114;2023-02-10T13:53:26;48.20;;;25.23;;
18793;SDS011;29610;49.022;12.114;2023-02-10T13:56:13;47.27;;;26.33;;
18793;SDS011;29610;49.022;12.114;2023-02-10T13:58:55;56.20;;;27.27;;
18793;SDS011;29610;49.022;12.114;2023-02-10T14:01:30;54.23;;;27.50;;
18793;SDS011;29610;49.022;12.114;2023-02-10T14:04:02;51.77;;;24.90;;
18793;SDS011;29610;49.022;12.114;2023-02-10T14:06:34;47.70;;;24.63;;
18793;SDS011;29610;49.022;12.114;2023-02-10T14:09:06;41.33;;;24.10;;
18793;SDS011;29610;49.022;12.114;2023-02-10T14:11:48;44.03;;;23.63;;
18793;SDS011;29610;49.022;12.114;2023-02-10T14:14:24;44.80;;;26.07;;
18793;SDS011;29610;49.022;12.114;2023-02-10T14:17:02;60.10;;;26.10;;
18793;SDS011;29610;49.022;12.114;2023-02-10T14:19:33;46.60;;;23.70;;
18793;SDS011;29610;49.022;12.114;2023-02-10T14:22:06;47.27;;;25.60;;
18793;SDS011;29610;49.022;12.114;2023-02-10T14:24:51;46.50;;;23.57;;
18793;SDS011;29610;49.022;12.114;2023-02-10T14:27:25;41.53;;;22.30;;
18793;SDS011;29610;49.022;12.114;2023-02-10T14:29:58;48.67;;;25.20;;
18793;SDS011;29610;49.022;12.114;2023-02-10T14:32:43;49.20;;;25.00;;
18793;SDS011;29610;49.022;12.114;2023-02-10T14:35:17;45.57;;;24.60;;
18793;SDS011;29610;49.022;12.114;2023-02-10T14:37:57;49.90;;;24.60;;
18793;SDS011;29610;49.022;12.114;2023-02-10T14:40:27;52.27;;;23.73;;
18793;SDS011;29610;49.022;12.114;2023-02-10T14:42:59;42.17;;;23.40;;
18793;SDS011;29610;49.022;12.114;2023-02-10T14:45:31;42.83;;;24.73;;
18793;SDS011;29610;49.022;12.114;2023-02-10T14:48:05;45.70;;;24.83;;
18793;SDS011;29610;49.022;12.114;2023-02-10T14:50:35;45.70;;;24.57;;
18793;SDS011;29610;49.022;12.114;2023-02-10T14:53:05;51.63;;;25.63;;